Vichy/Rolla, Missouri
Current Conditions -  °F | °C
As of 4:53 PM on Tuesday 27 Jan 2015 (Local Time) from KVIH Reporting Station
Clear Clear  
Wind Chill: 46°   Ceiling: Unl
Heat Index: 48°   Visibility: 10mi
Dew Point: 31°   Wind: 5mph
Humidity: 52%   Direction: 30°NNE
Pressure: 30.13"   Gusts: NA
Location:  38.12°N, 91.76°W
Report Text: KVIH 272253Z AUTO 03004KT 10SM CLR 09/M01 A3013 RMK AO2 SLP208 T00891006
Loading
Personal Weather Stations






























Interactive Weather Map New forecast layout! Learn more

10-Day Weather Forecast

Advertisements
Track Severe Weather on mobile